sensor_id;sensor_type;location;lat;lon;timestamp;pressure;altitude;pressure_sealevel;temperature;humidity
62980;BME280;49075;53.988;27.678;2023-06-01T00:01:56;985.2;;;12.1;43.1
62980;BME280;49075;53.988;27.678;2023-06-01T00:07:00;985.2;;;12.1;43.2
62980;BME280;49075;53.988;27.678;2023-06-01T00:11:48;985.2;;;12;43.2
62980;BME280;49075;53.988;27.678;2023-06-01T00:16:36;985.2;;;12;43.6
62980;BME280;49075;53.988;27.678;2023-06-01T00:21:44;985.1;;;11.9;43.4
62980;BME280;49075;53.988;27.678;2023-06-01T00:26:36;985.1;;;11.8;43.7
62980;BME280;49075;53.988;27.678;2023-06-01T00:31:36;985.2;;;11.8;43.6
62980;BME280;49075;53.988;27.678;2023-06-01T00:36:36;985.2;;;11.8;43.8
62980;BME280;49075;53.988;27.678;2023-06-01T00:41:36;985.2;;;11.8;43.6
62980;BME280;49075;53.988;27.678;2023-06-01T00:46:36;985.1;;;11.7;44.1
62980;BME280;49075;53.988;27.678;2023-06-01T00:51:36;985.1;;;11.7;44
62980;BME280;49075;53.988;27.678;2023-06-01T00:56:44;985;;;11.7;44.2
62980;BME280;49075;53.988;27.678;2023-06-01T01:01:48;985;;;11.7;43.9
62980;BME280;49075;53.988;27.678;2023-06-01T01:06:44;985;;;11.5;44.7
62980;BME280;49075;53.988;27.678;2023-06-01T01:11:56;985;;;11.5;44.6
62980;BME280;49075;53.988;27.678;2023-06-01T01:16:38;984.9;;;11.5;44.5
62980;BME280;49075;53.988;27.678;2023-06-01T01:21:36;984.9;;;11.4;44.7
62980;BME280;49075;53.988;27.678;2023-06-01T01:26:41;984.9;;;11.5;44.4
62980;BME280;49075;53.988;27.678;2023-06-01T01:31:48;984.9;;;11.4;45
62980;BME280;49075;53.988;27.678;2023-06-01T01:36:42;984.9;;;11.3;44.8
62980;BME280;49075;53.988;27.678;2023-06-01T01:41:38;984.9;;;11.3;45.3
62980;BME280;49075;53.988;27.678;2023-06-01T01:46:47;984.9;;;11.2;45.1
62980;BME280;49075;53.988;27.678;2023-06-01T01:51:40;984.9;;;11;46
62980;BME280;49075;53.988;27.678;2023-06-01T01:56:44;984.8;;;11;45.6
62980;BME280;49075;53.988;27.678;2023-06-01T02:02:04;984.8;;;11;45.8
62980;BME280;49075;53.988;27.678;2023-06-01T02:06:38;984.8;;;11;45.9
62980;BME280;49075;53.988;27.678;2023-06-01T02:11:38;984.8;;;11;46.3
62980;BME280;49075;53.988;27.678;2023-06-01T02:16:38;984.8;;;11;46.1
62980;BME280;49075;53.988;27.678;2023-06-01T02:21:38;984.8;;;11;46.5
62980;BME280;49075;53.988;27.678;2023-06-01T02:26:38;984.8;;;11.1;46.6
62980;BME280;49075;53.988;27.678;2023-06-01T02:31:38;984.8;;;11.1;46.6
62980;BME280;49075;53.988;27.678;2023-06-01T02:36:38;984.8;;;11.1;46.7
62980;BME280;49075;53.988;27.678;2023-06-01T02:41:50;984.8;;;11.2;46.5
62980;BME280;49075;53.988;27.678;2023-06-01T02:46:58;984.8;;;11.3;46.9
62980;BME280;49075;53.988;27.678;2023-06-01T02:51:38;984.7;;;11.4;46.5
62980;BME280;49075;53.988;27.678;2023-06-01T02:56:50;984.7;;;11.4;46.8
62980;BME280;49075;53.988;27.678;2023-06-01T03:01:38;984.8;;;11.6;46.5
62980;BME280;49075;53.988;27.678;2023-06-01T03:06:38;984.7;;;11.6;46.9
62980;BME280;49075;53.988;27.678;2023-06-01T03:11:50;984.7;;;11.7;46.6
62980;BME280;49075;53.988;27.678;2023-06-01T03:16:52;984.7;;;11.9;46.8
62980;BME280;49075;53.988;27.678;2023-06-01T03:22:04;984.6;;;12.1;46.3
62980;BME280;49075;53.988;27.678;2023-06-01T03:26:50;984.6;;;12.2;46.4
62980;BME280;49075;53.988;27.678;2023-06-01T03:31:38;984.6;;;12.4;46
62980;BME280;49075;53.988;27.678;2023-06-01T03:36:52;984.5;;;12.5;46.2
62980;BME280;49075;53.988;27.678;2023-06-01T03:41:50;984.5;;;12.5;46.2
62980;BME280;49075;53.988;27.678;2023-06-01T03:46:38;984.5;;;12.7;46.4
62980;BME280;49075;53.988;27.678;2023-06-01T03:51:38;984.5;;;13;45.7
62980;BME280;49075;53.988;27.678;2023-06-01T03:56:44;984.5;;;13.2;45.7
62980;BME280;49075;53.988;27.678;2023-06-01T04:01:50;984.5;;;13.5;45.2
62980;BME280;49075;53.988;27.678;2023-06-01T04:06:52;984.5;;;13.7;45
62980;BME280;49075;53.988;27.678;2023-06-01T04:11:58;984.5;;;13.9;44.7
62980;BME280;49075;53.988;27.678;2023-06-01T04:16:44;984.5;;;14.1;44.7
62980;BME280;49075;53.988;27.678;2023-06-01T04:21:50;984.5;;;14.4;44.5
62980;BME280;49075;53.988;27.678;2023-06-01T04:26:44;984.4;;;14.5;44.5
62980;BME280;49075;53.988;27.678;2023-06-01T04:31:38;984.4;;;14.7;44.5
62980;BME280;49075;53.988;27.678;2023-06-01T04:37:04;984.4;;;14.5;45.2
62980;BME280;49075;53.988;27.678;2023-06-01T04:41:56;984.3;;;14.6;45.1
62980;BME280;49075;53.988;27.678;2023-06-01T04:46:58;984.3;;;14.8;44.8
62980;BME280;49075;53.988;27.678;2023-06-01T04:51:50;984.3;;;15.1;44.3
62980;BME280;49075;53.988;27.678;2023-06-01T04:56:38;984.3;;;15.3;44.2
62980;BME280;49075;53.988;27.678;2023-06-01T05:01:38;984.3;;;15.5;44
62980;BME280;49075;53.988;27.678;2023-06-01T05:07:02;984.4;;;15.6;44.1
62980;BME280;49075;53.988;27.678;2023-06-01T05:11:38;984.3;;;15.9;43.8
62980;BME280;49075;53.988;27.678;2023-06-01T05:16:48;984.3;;;16.1;43.6
62980;BME280;49075;53.988;27.678;2023-06-01T05:21:38;984.3;;;16.3;43.5
62980;BME280;49075;53.988;27.678;2023-06-01T05:26:50;984.3;;;16.6;43
62980;BME280;49075;53.988;27.678;2023-06-01T05:31:50;984.3;;;16.6;43.2
62980;BME280;49075;53.988;27.678;2023-06-01T05:37:00;984.3;;;16.7;42.9
62980;BME280;49075;53.988;27.678;2023-06-01T05:41:38;984.3;;;17;42.6
62980;BME280;49075;53.988;27.678;2023-06-01T05:46:58;984.3;;;17;42.6
62980;BME280;49075;53.988;27.678;2023-06-01T05:51:44;984.3;;;17.2;42.1
62980;BME280;49075;53.988;27.678;2023-06-01T05:56:48;984.2;;;17.3;41.8
62980;BME280;49075;53.988;27.678;2023-06-01T06:02:16;984.2;;;17.8;41
62980;BME280;49075;53.988;27.678;2023-06-01T06:06:48;984.2;;;18.1;40.5
62980;BME280;49075;53.988;27.678;2023-06-01T06:11:50;984.2;;;18.3;39.8
62980;BME280;49075;53.988;27.678;2023-06-01T06:16:46;984.2;;;18.9;39
62980;BME280;49075;53.988;27.678;2023-06-01T06:21:38;984.2;;;19.5;37.8
62980;BME280;49075;53.988;27.678;2023-06-01T06:26:38;984.1;;;19.9;37.4
62980;BME280;49075;53.988;27.678;2023-06-01T06:31:56;984.1;;;20.4;36.2
62980;BME280;49075;53.988;27.678;2023-06-01T06:36:38;984.1;;;20.7;35.9
62980;BME280;49075;53.988;27.678;2023-06-01T06:41:44;984.1;;;21.4;34.4
62980;BME280;49075;53.988;27.678;2023-06-01T06:47:00;984.1;;;22;33.8
62980;BME280;49075;53.988;27.678;2023-06-01T06:52:20;984.1;;;22.6;32.9
62980;BME280;49075;53.988;27.678;2023-06-01T06:56:41;984.1;;;23.1;31.6
62980;BME280;49075;53.988;27.678;2023-06-01T07:01:48;984.1;;;24.4;30.4
62980;BME280;49075;53.988;27.678;2023-06-01T07:06:50;984;;;25.3;28.6
62980;BME280;49075;53.988;27.678;2023-06-01T07:12:08;984;;;26;27.5
62980;BME280;49075;53.988;27.678;2023-06-01T07:21:50;983.9;;;26.2;26.9
62980;BME280;49075;53.988;27.678;2023-06-01T07:26:39;983.9;;;26.2;26.4
62980;BME280;49075;53.988;27.678;2023-06-01T07:31:38;983.8;;;26.7;25.5
62980;BME280;49075;53.988;27.678;2023-06-01T07:36:39;983.8;;;26.4;25.4
62980;BME280;49075;53.988;27.678;2023-06-01T07:41:38;983.8;;;26.6;25.5
62980;BME280;49075;53.988;27.678;2023-06-01T07:46:38;983.8;;;27.6;24.3
62980;BME280;49075;53.988;27.678;2023-06-01T07:51:54;983.7;;;27.6;24.2
62980;BME280;49075;53.988;27.678;2023-06-01T08:22:06;983.5;;;28.7;22.4
62980;BME280;49075;53.988;27.678;2023-06-01T08:26:38;983.5;;;29;22.2
62980;BME280;49075;53.988;27.678;2023-06-01T08:31:50;983.4;;;29.2;21.6
62980;BME280;49075;53.988;27.678;2023-06-01T08:36:45;983.4;;;29.5;21.7
62980;BME280;49075;53.988;27.678;2023-06-01T08:41:53;983.4;;;29.6;21.3
62980;BME280;49075;53.988;27.678;2023-06-01T08:46:38;983.3;;;30.6;20.7
62980;BME280;49075;53.988;27.678;2023-06-01T08:51:50;983.2;;;30.9;20
62980;BME280;49075;53.988;27.678;2023-06-01T08:56:38;983.3;;;31;20
62980;BME280;49075;53.988;27.678;2023-06-01T09:01:38;983.3;;;31.3;19.6
62980;BME280;49075;53.988;27.678;2023-06-01T09:06:38;983.1;;;31.2;19.5
62980;BME280;49075;53.988;27.678;2023-06-01T09:12:28;983.1;;;31.3;19.2
62980;BME280;49075;53.988;27.678;2023-06-01T09:16:38;983.1;;;31.5;19.3
62980;BME280;49075;53.988;27.678;2023-06-01T09:21:38;983.1;;;31.3;19.2
62980;BME280;49075;53.988;27.678;2023-06-01T09:26:38;983;;;31.8;18.9
62980;BME280;49075;53.988;27.678;2023-06-01T09:32:02;983;;;32.1;18.5
62980;BME280;49075;53.988;27.678;2023-06-01T09:36:56;983;;;32;18.4
62980;BME280;49075;53.988;27.678;2023-06-01T09:41:56;983;;;31.8;18.4
62980;BME280;49075;53.988;27.678;2023-06-01T09:46:50;982.8;;;32.2;18.4
62980;BME280;49075;53.988;27.678;2023-06-01T09:51:38;982.8;;;32;18.2
62980;BME280;49075;53.988;27.678;2023-06-01T09:57:04;982.8;;;31.9;18.5
62980;BME280;49075;53.988;27.678;2023-06-01T10:02:07;982.8;;;31.8;18.4
62980;BME280;49075;53.988;27.678;2023-06-01T10:06:44;982.7;;;32.1;18.3
62980;BME280;49075;53.988;27.678;2023-06-01T10:11:58;982.7;;;32.1;18
62980;BME280;49075;53.988;27.678;2023-06-01T10:16:44;982.7;;;31.8;18.1
62980;BME280;49075;53.988;27.678;2023-06-01T10:21:44;982.6;;;29.9;19.6
62980;BME280;49075;53.988;27.678;2023-06-01T10:26:40;982.6;;;29.4;19.9
62980;BME280;49075;53.988;27.678;2023-06-01T10:32:09;982.6;;;29.7;19.7
62980;BME280;49075;53.988;27.678;2023-06-01T10:37:10;982.6;;;30.2;19.3
62980;BME280;49075;53.988;27.678;2023-06-01T10:41:50;982.5;;;30.4;19.2
62980;BME280;49075;53.988;27.678;2023-06-01T10:46:50;982.5;;;30.7;18.7
62980;BME280;49075;53.988;27.678;2023-06-01T10:51:44;982.5;;;30.6;18.9
62980;BME280;49075;53.988;27.678;2023-06-01T10:57:11;982.5;;;29.6;19.7
62980;BME280;49075;53.988;27.678;2023-06-01T11:01:50;982.4;;;29;20.2
62980;BME280;49075;53.988;27.678;2023-06-01T11:06:38;982.3;;;28.7;20.2
62980;BME280;49075;53.988;27.678;2023-06-01T11:12:08;982.3;;;28.6;19.9
62980;BME280;49075;53.988;27.678;2023-06-01T11:16:38;982.1;;;28.4;20
62980;BME280;49075;53.988;27.678;2023-06-01T11:21:38;982.2;;;27.7;20.9
62980;BME280;49075;53.988;27.678;2023-06-01T11:26:54;982.1;;;27;21.4
62980;BME280;49075;53.988;27.678;2023-06-01T11:31:57;982;;;26.4;22.3
62980;BME280;49075;53.988;27.678;2023-06-01T11:36:39;982;;;25.9;22.6
62980;BME280;49075;53.988;27.678;2023-06-01T11:41:51;981.9;;;25.5;23.1
62980;BME280;49075;53.988;27.678;2023-06-01T11:46:47;981.9;;;25.1;23.1
62980;BME280;49075;53.988;27.678;2023-06-01T11:51:38;981.9;;;24.7;23
62980;BME280;49075;53.988;27.678;2023-06-01T11:56:38;981.9;;;24.8;23.2
62980;BME280;49075;53.988;27.678;2023-06-01T12:01:41;981.9;;;24.6;23.9
62980;BME280;49075;53.988;27.678;2023-06-01T12:06:50;981.9;;;24.6;23.9
62980;BME280;49075;53.988;27.678;2023-06-01T12:11:38;981.8;;;24.5;24.2
62980;BME280;49075;53.988;27.678;2023-06-01T12:17:06;981.8;;;24.3;24.3
62980;BME280;49075;53.988;27.678;2023-06-01T12:21:58;981.8;;;24.1;25.1
62980;BME280;49075;53.988;27.678;2023-06-01T12:26:50;981.7;;;24.2;24.8
62980;BME280;49075;53.988;27.678;2023-06-01T12:31:38;981.7;;;24;24.8
62980;BME280;49075;53.988;27.678;2023-06-01T12:36:38;981.7;;;23.8;24.8
62980;BME280;49075;53.988;27.678;2023-06-01T12:41:56;981.6;;;23.8;24.9
62980;BME280;49075;53.988;27.678;2023-06-01T12:46:44;981.6;;;23.8;25.1
62980;BME280;49075;53.988;27.678;2023-06-01T12:51:54;981.6;;;23.8;25.1
62980;BME280;49075;53.988;27.678;2023-06-01T12:57:02;981.5;;;24;24.7
62980;BME280;49075;53.988;27.678;2023-06-01T13:01:58;981.5;;;24;24.7
62980;BME280;49075;53.988;27.678;2023-06-01T13:06:50;981.6;;;24;24.8
62980;BME280;49075;53.988;27.678;2023-06-01T13:11:52;981.5;;;23.8;25.1
62980;BME280;49075;53.988;27.678;2023-06-01T13:16:50;981.4;;;23.5;25.4
62980;BME280;49075;53.988;27.678;2023-06-01T13:21:58;981.4;;;23.6;24.8
62980;BME280;49075;53.988;27.678;2023-06-01T13:27:02;981.4;;;23.6;24.9
62980;BME280;49075;53.988;27.678;2023-06-01T13:31:53;981.4;;;23.5;25.2
62980;BME280;49075;53.988;27.678;2023-06-01T13:36:58;981.4;;;23.5;26.1
62980;BME280;49075;53.988;27.678;2023-06-01T13:41:48;981.3;;;23.7;26.1
62980;BME280;49075;53.988;27.678;2023-06-01T13:46:52;981.3;;;23.9;25.4
62980;BME280;49075;53.988;27.678;2023-06-01T13:51:38;981.2;;;24;25.9
62980;BME280;49075;53.988;27.678;2023-06-01T13:56:48;981.3;;;23.8;26.7
62980;BME280;49075;53.988;27.678;2023-06-01T14:01:52;981.2;;;23.8;26.7
62980;BME280;49075;53.988;27.678;2023-06-01T14:06:38;981.3;;;23.6;26.6
62980;BME280;49075;53.988;27.678;2023-06-01T14:12:14;981.3;;;23.5;26.5
62980;BME280;49075;53.988;27.678;2023-06-01T14:17:04;981.3;;;23.5;26.6
62980;BME280;49075;53.988;27.678;2023-06-01T14:21:44;981.3;;;23.5;26.7
62980;BME280;49075;53.988;27.678;2023-06-01T14:26:38;981.3;;;23.5;26.4
62980;BME280;49075;53.988;27.678;2023-06-01T14:31:38;981.2;;;23.4;26.6
62980;BME280;49075;53.988;27.678;2023-06-01T14:36:48;981.2;;;23.6;26.4
62980;BME280;49075;53.988;27.678;2023-06-01T14:41:44;981.2;;;23.8;26.2
62980;BME280;49075;53.988;27.678;2023-06-01T14:46:38;981.1;;;23.9;26.5
62980;BME280;49075;53.988;27.678;2023-06-01T14:52:06;981.1;;;23.7;26.5
62980;BME280;49075;53.988;27.678;2023-06-01T14:56:38;981.1;;;23.7;26.8
62980;BME280;49075;53.988;27.678;2023-06-01T15:01:48;981;;;23.7;26.4
62980;BME280;49075;53.988;27.678;2023-06-01T15:06:38;981;;;23.6;26.6
62980;BME280;49075;53.988;27.678;2023-06-01T15:11:38;980.9;;;23.3;27
62980;BME280;49075;53.988;27.678;2023-06-01T15:16:38;980.9;;;23.3;26.9
62980;BME280;49075;53.988;27.678;2023-06-01T15:21:48;980.9;;;23.4;26.9
62980;BME280;49075;53.988;27.678;2023-06-01T15:26:50;980.8;;;23.2;27.2
62980;BME280;49075;53.988;27.678;2023-06-01T15:31:38;980.8;;;23.2;27.3
62980;BME280;49075;53.988;27.678;2023-06-01T15:36:48;980.8;;;23.2;27.6
62980;BME280;49075;53.988;27.678;2023-06-01T15:41:44;980.8;;;23.1;27.5
62980;BME280;49075;53.988;27.678;2023-06-01T15:46:38;980.7;;;23;27.5
62980;BME280;49075;53.988;27.678;2023-06-01T15:51:38;980.7;;;23.1;27.4
62980;BME280;49075;53.988;27.678;2023-06-01T15:57:02;980.7;;;23.2;27.2
62980;BME280;49075;53.988;27.678;2023-06-01T16:01:38;980.7;;;23.3;27.2
62980;BME280;49075;53.988;27.678;2023-06-01T16:06:44;980.6;;;23.4;27
62980;BME280;49075;53.988;27.678;2023-06-01T16:12:18;980.6;;;23.3;27.2
62980;BME280;49075;53.988;27.678;2023-06-01T16:17:04;980.5;;;23.2;27.5
62980;BME280;49075;53.988;27.678;2023-06-01T16:21:38;980.5;;;22.8;28.9
62980;BME280;49075;53.988;27.678;2023-06-01T16:26:39;980.5;;;22.5;29.5
62980;BME280;49075;53.988;27.678;2023-06-01T16:31:52;980.5;;;22.3;31
62980;BME280;49075;53.988;27.678;2023-06-01T16:36:52;980.6;;;22;31.4
62980;BME280;49075;53.988;27.678;2023-06-01T16:41:48;980.6;;;21.6;32.3
62980;BME280;49075;53.988;27.678;2023-06-01T16:47:06;980.6;;;21.4;32.7
62980;BME280;49075;53.988;27.678;2023-06-01T16:51:50;980.6;;;21;33.3
62980;BME280;49075;53.988;27.678;2023-06-01T16:57:08;980.6;;;20.7;33.9
62980;BME280;49075;53.988;27.678;2023-06-01T17:01:38;980.6;;;20.4;34.3
62980;BME280;49075;53.988;27.678;2023-06-01T17:06:50;980.6;;;20.2;34.6
62980;BME280;49075;53.988;27.678;2023-06-01T17:11:48;980.5;;;20.1;34.9
62980;BME280;49075;53.988;27.678;2023-06-01T17:16:38;980.5;;;19.9;35.6
62980;BME280;49075;53.988;27.678;2023-06-01T17:21:52;980.5;;;19.8;35.6
62980;BME280;49075;53.988;27.678;2023-06-01T17:26:38;980.6;;;19.6;36.1
62980;BME280;49075;53.988;27.678;2023-06-01T17:31:54;980.5;;;19.6;36.1
62980;BME280;49075;53.988;27.678;2023-06-01T17:36:58;980.5;;;19.5;36.6
62980;BME280;49075;53.988;27.678;2023-06-01T17:41:38;980.5;;;19.2;37
62980;BME280;49075;53.988;27.678;2023-06-01T17:47:10;980.5;;;18.9;37.7
62980;BME280;49075;53.988;27.678;2023-06-01T17:52:02;980.5;;;18.6;37.6
62980;BME280;49075;53.988;27.678;2023-06-01T17:56:38;980.5;;;18.4;37.6
62980;BME280;49075;53.988;27.678;2023-06-01T18:01:58;980.6;;;18.3;37.4
62980;BME280;49075;53.988;27.678;2023-06-01T18:06:38;980.6;;;18.2;37.6
62980;BME280;49075;53.988;27.678;2023-06-01T18:11:58;980.6;;;18.1;37.6
62980;BME280;49075;53.988;27.678;2023-06-01T18:16:54;980.6;;;17.9;37.8
62980;BME280;49075;53.988;27.678;2023-06-01T18:21:38;980.6;;;17.7;38.2
62980;BME280;49075;53.988;27.678;2023-06-01T18:27:10;980.6;;;17.5;38.3
62980;BME280;49075;53.988;27.678;2023-06-01T18:31:52;980.6;;;17.4;38.7
62980;BME280;49075;53.988;27.678;2023-06-01T18:36:44;980.6;;;17.2;38.9
62980;BME280;49075;53.988;27.678;2023-06-01T18:41:52;980.6;;;17;39.3
62980;BME280;49075;53.988;27.678;2023-06-01T18:46:38;980.7;;;16.9;39.2
62980;BME280;49075;53.988;27.678;2023-06-01T18:51:54;980.6;;;16.7;39.8
62980;BME280;49075;53.988;27.678;2023-06-01T18:56:54;980.6;;;16.7;39.7
62980;BME280;49075;53.988;27.678;2023-06-01T19:02:00;980.6;;;16.7;39.6
62980;BME280;49075;53.988;27.678;2023-06-01T19:06:42;980.6;;;16.5;40
62980;BME280;49075;53.988;27.678;2023-06-01T19:11:50;980.5;;;16.3;40
62980;BME280;49075;53.988;27.678;2023-06-01T19:16:36;980.6;;;16.2;39.9
62980;BME280;49075;53.988;27.678;2023-06-01T19:22:02;980.6;;;16.1;39.9
62980;BME280;49075;53.988;27.678;2023-06-01T19:26:50;980.6;;;16;40
62980;BME280;49075;53.988;27.678;2023-06-01T19:31:39;980.6;;;15.9;40
62980;BME280;49075;53.988;27.678;2023-06-01T19:36:54;980.6;;;15.9;40.1
62980;BME280;49075;53.988;27.678;2023-06-01T19:41:38;980.6;;;15.8;40.1
62980;BME280;49075;53.988;27.678;2023-06-01T19:46:39;980.5;;;15.8;40.2
62980;BME280;49075;53.988;27.678;2023-06-01T19:51:38;980.4;;;15.7;40.2
62980;BME280;49075;53.988;27.678;2023-06-01T19:56:39;980.4;;;15.7;40.3
62980;BME280;49075;53.988;27.678;2023-06-01T20:01:48;980.3;;;15.4;41
62980;BME280;49075;53.988;27.678;2023-06-01T20:06:39;980.3;;;15.4;40.9
62980;BME280;49075;53.988;27.678;2023-06-01T20:11:39;980.2;;;15.3;41.2
62980;BME280;49075;53.988;27.678;2023-06-01T20:16:39;980.2;;;15.3;40.9
62980;BME280;49075;53.988;27.678;2023-06-01T20:21:53;980.2;;;15.3;40.8
62980;BME280;49075;53.988;27.678;2023-06-01T20:26:54;980.2;;;15.2;40.9
62980;BME280;49075;53.988;27.678;2023-06-01T20:31:38;980.1;;;15.2;40.9
62980;BME280;49075;53.988;27.678;2023-06-01T20:37:03;980.1;;;15.2;40.8
62980;BME280;49075;53.988;27.678;2023-06-01T20:41:38;980;;;15.1;41
62980;BME280;49075;53.988;27.678;2023-06-01T20:46:38;980;;;15.1;41
62980;BME280;49075;53.988;27.678;2023-06-01T20:51:48;980;;;15.2;40.8
62980;BME280;49075;53.988;27.678;2023-06-01T20:56:39;980;;;15.2;41
62980;BME280;49075;53.988;27.678;2023-06-01T21:01:39;980;;;15.1;41.2
62980;BME280;49075;53.988;27.678;2023-06-01T21:06:44;980;;;15;41.6
62980;BME280;49075;53.988;27.678;2023-06-01T21:11:38;979.9;;;14.9;41.7
62980;BME280;49075;53.988;27.678;2023-06-01T21:17:00;979.9;;;14.9;41.8
62980;BME280;49075;53.988;27.678;2023-06-01T21:21:54;979.9;;;14.9;41.7
62980;BME280;49075;53.988;27.678;2023-06-01T21:26:48;979.8;;;14.9;41.7
62980;BME280;49075;53.988;27.678;2023-06-01T21:31:38;979.7;;;14.8;41.6
62980;BME280;49075;53.988;27.678;2023-06-01T21:36:44;979.7;;;14.7;41.8
62980;BME280;49075;53.988;27.678;2023-06-01T21:41:48;979.6;;;14.6;41.9
62980;BME280;49075;53.988;27.678;2023-06-01T21:47:06;979.6;;;14.5;42.3
62980;BME280;49075;53.988;27.678;2023-06-01T21:51:38;979.6;;;14.5;42
62980;BME280;49075;53.988;27.678;2023-06-01T21:56:50;979.6;;;14.5;42.3
62980;BME280;49075;53.988;27.678;2023-06-01T22:01:52;979.6;;;14.4;42.7
62980;BME280;49075;53.988;27.678;2023-06-01T22:06:48;979.6;;;14.4;42.6
62980;BME280;49075;53.988;27.678;2023-06-01T22:11:50;979.6;;;14.4;42.4
62980;BME280;49075;53.988;27.678;2023-06-01T22:16:46;979.7;;;14.5;42.3
62980;BME280;49075;53.988;27.678;2023-06-01T22:21:50;979.7;;;14.6;42.3
62980;BME280;49075;53.988;27.678;2023-06-01T22:26:36;979.8;;;14.7;42.2
62980;BME280;49075;53.988;27.678;2023-06-01T22:31:36;980;;;14.8;42.3
62980;BME280;49075;53.988;27.678;2023-06-01T22:36:34;980.2;;;14.7;42.8
62980;BME280;49075;53.988;27.678;2023-06-01T22:42:00;980.3;;;14.5;44.3
62980;BME280;49075;53.988;27.678;2023-06-01T22:46:46;980.2;;;14.5;44.7
62980;BME280;49075;53.988;27.678;2023-06-01T22:52:05;980.4;;;14.5;44.9
62980;BME280;49075;53.988;27.678;2023-06-01T22:57:08;980.4;;;14.5;44.7
62980;BME280;49075;53.988;27.678;2023-06-01T23:01:36;980.3;;;14.6;45.5
62980;BME280;49075;53.988;27.678;2023-06-01T23:06:37;980.2;;;14.5;45.9
62980;BME280;49075;53.988;27.678;2023-06-01T23:11:36;980.2;;;14.3;46.7
62980;BME280;49075;53.988;27.678;2023-06-01T23:16:36;980.1;;;14.1;47.4
62980;BME280;49075;53.988;27.678;2023-06-01T23:22:16;979.9;;;13.9;49
62980;BME280;49075;53.988;27.678;2023-06-01T23:26:48;979.8;;;13.8;48.5
62980;BME280;49075;53.988;27.678;2023-06-01T23:31:48;979.7;;;13.7;49
62980;BME280;49075;53.988;27.678;2023-06-01T23:36:36;979.6;;;13.6;49
62980;BME280;49075;53.988;27.678;2023-06-01T23:41:36;979.6;;;13.5;49.8
62980;BME280;49075;53.988;27.678;2023-06-01T23:46:48;979.6;;;13.4;49.4
62980;BME280;49075;53.988;27.678;2023-06-01T23:51:36;979.6;;;13.3;49.6
62980;BME280;49075;53.988;27.678;2023-06-01T23:57:00;979.5;;;13.3;49.1
